Current | Radar | Forecast | Satellite
Updated: 10:53 PM EDT on March 28, 2017
Observed at Sarasota, Florida
Temperature 69°F
Humidity 87%
Dew Point 65°F
Wind North at 0 mph
Pressure 30.02 in (Rising)
Conditions Clear
Visibility 10.0 miles
UV 0 out of 16
Clouds Clear (CLR) : -
Yesterday's Maximum 81°F
Yesterday's Minimum 62°F
Yesterday's Cooling Degree Days 7
Sunrise7:24 AM EDT
Sunset7:45 PM EDT
Moon Rise7:55 AM EDT
Moon Set8:35 PM EDT
Moon PhaseMoon Phase
New Moon
Raw METARMETAR KSRQ 290253Z 00000KT 10SM CLR 21/18 A3002 RMK AO2 SLP166 T02060183 53010

Sarasota, FL

Current Radar

Radar Map
Zoom into radar image
Zoom into animated radar image


Click here for Marine Information
Scientific forecaster discussion (NWS)

Units: English | Metric

Find the Weather for any City, State or Zipcode, or Country:

U.S. State List | Severe Weather | Tropical Storms | Ski Conditions
United States | Canada | Central America | South America | Asia | Europe | Australia | Africa | Islands

Weather Underground

© Copyright 2017
The Weather Company, LLC